Hickory Knoll, North Carolina
Current Conditions -  °F | °C
As of 8:15 PM on Thursday 18 Dec 2014 (Local Time) from KRHP Reporting Station
Overcast Overcast  
Wind Chill: 42°   Ceiling: 4200
Heat Index: 42°   Visibility: 10mi
Dew Point: 35°   Wind: 0mph
Humidity: 74%   Direction: NA
Pressure: 30.12"   Gusts: NA
Location:  35.1737°N, 83.4215°W
Report Text: KRHP 190115Z AUTO 00000KT 10SM OVC042 06/02 A3012 RMK AO2 T00580015
Loading
Personal Weather Stations






























Interactive Weather Map New forecast layout! Learn more

10-Day Weather Forecast

Advertisements
Track Severe Weather on mobile